createdAt,value
2023-05-19T00:02:00.905Z,98221.97
2023-05-19T00:07:02.210Z,98218.06
2023-05-19T00:12:03.495Z,98214.44
2023-05-19T00:17:04.739Z,98214.44
2023-05-19T00:22:06.216Z,98210.00
2023-05-19T00:27:07.459Z,98209.97
2023-05-19T00:32:08.776Z,98210.94
2023-05-19T00:37:09.994Z,98216.63
2023-05-19T00:47:36.851Z,98200.81
2023-05-19T00:58:03.842Z,98196.25
2023-05-19T01:03:11.032Z,98194.91
2023-05-19T01:08:12.544Z,98189.44
2023-05-19T01:13:13.780Z,98200.63
2023-05-19T01:23:40.616Z,98191.34
2023-05-19T01:28:41.906Z,98198.03
2023-05-19T01:33:43.150Z,98194.25
2023-05-19T01:38:44.380Z,98186.75
2023-05-19T01:43:45.606Z,98187.97
2023-05-19T01:48:46.839Z,98197.06
2023-05-19T01:53:48.075Z,98190.84
2023-05-19T01:58:49.310Z,98185.88
2023-05-19T02:03:50.755Z,98188.44
2023-05-19T02:14:17.722Z,98185.63
2023-05-19T02:19:19.005Z,98189.25
2023-05-19T02:24:22.760Z,98178.88
2023-05-19T02:29:24.038Z,98181.06
2023-05-19T02:34:25.587Z,98183.81
2023-05-19T02:39:26.951Z,98183.78
2023-05-19T02:44:28.216Z,98180.28
2023-05-19T02:49:35.871Z,98184.13
2023-05-19T02:54:37.214Z,98173.63
2023-05-19T02:59:38.469Z,98171.53
2023-05-19T03:04:42.766Z,98167.53
2023-05-19T03:09:44.005Z,98167.28
2023-05-19T03:14:45.254Z,98164.63
2023-05-19T03:19:46.532Z,98167.59
2023-05-19T03:24:51.007Z,98173.50
2023-05-19T03:29:53.782Z,98177.91
2023-05-19T03:34:54.998Z,98184.53
2023-05-19T03:39:56.212Z,98179.06
2023-05-19T03:44:57.419Z,98196.00
2023-05-19T03:49:58.667Z,98193.38
2023-05-19T03:54:59.903Z,98202.09
2023-05-19T04:00:01.143Z,98200.56
2023-05-19T04:05:04.968Z,98201.06
2023-05-19T04:10:06.299Z,98200.69
2023-05-19T04:15:07.567Z,98201.06
2023-05-19T04:20:08.785Z,98199.91
2023-05-19T04:25:10.159Z,98192.63
2023-05-19T04:30:12.042Z,98198.16
2023-05-19T04:35:13.736Z,98194.81
2023-05-19T04:40:15.656Z,98201.41
2023-05-19T04:45:16.921Z,98200.44
2023-05-19T04:50:18.275Z,98208.69
2023-05-19T04:55:19.651Z,98210.63
2023-05-19T05:00:21.286Z,98206.81
2023-05-19T05:05:22.658Z,98215.09
2023-05-19T05:10:23.909Z,98209.28
2023-05-19T05:15:28.593Z,98215.69
2023-05-19T05:20:29.923Z,98195.78
2023-05-19T05:25:31.487Z,98182.03
2023-05-19T05:30:32.889Z,98184.44
2023-05-19T05:35:34.301Z,98181.47
2023-05-19T05:40:35.780Z,98177.59
2023-05-19T05:45:37.069Z,98177.59
2023-05-19T05:50:38.366Z,98168.19
2023-05-19T05:55:39.628Z,98170.63
2023-05-19T06:00:43.474Z,98161.53
2023-05-19T06:05:44.842Z,98159.69
2023-05-19T06:10:47.493Z,98154.78
2023-05-19T06:15:48.887Z,98142.03
2023-05-19T06:20:50.260Z,98143.69
2023-05-19T06:25:51.551Z,98139.50
2023-05-19T06:30:52.794Z,98135.72
2023-05-19T06:35:54.141Z,98136.03
2023-05-19T06:40:55.438Z,98142.06
2023-05-19T06:45:56.757Z,98140.75
2023-05-19T06:50:58.294Z,98136.31
2023-05-19T06:56:00.372Z,98129.38
2023-05-19T07:01:01.884Z,98138.91
2023-05-19T07:06:04.032Z,98131.25
2023-05-19T07:11:05.928Z,98119.19
2023-05-19T07:16:07.163Z,98107.28
2023-05-19T07:21:08.528Z,98111.25
2023-05-19T07:26:09.746Z,98117.69
2023-05-19T07:31:11.003Z,98113.69
2023-05-19T07:36:12.331Z,98095.72
2023-05-19T07:41:13.553Z,98092.16
2023-05-19T07:46:14.860Z,98092.06
2023-05-19T07:51:16.291Z,98082.00
2023-05-19T07:56:17.575Z,98078.59
2023-05-19T08:01:18.837Z,98069.19
2023-05-19T08:06:20.046Z,98069.97
2023-05-19T08:11:21.602Z,98068.81
2023-05-19T08:16:23.093Z,98063.50
2023-05-19T08:21:24.417Z,98065.72
2023-05-19T08:26:26.451Z,98060.91
2023-05-19T08:31:27.715Z,98054.72
2023-05-19T08:36:29.404Z,98044.06
2023-05-19T08:41:30.603Z,98034.78
2023-05-19T08:46:31.933Z,98038.47
2023-05-19T08:51:33.225Z,98034.50
2023-05-19T08:56:34.476Z,98020.38
2023-05-19T09:06:40.969Z,98014.25
2023-05-19T09:11:42.476Z,98009.81
2023-05-19T09:16:43.788Z,97999.28
2023-05-19T09:21:45.731Z,97997.25
2023-05-19T09:26:47.053Z,98004.88
2023-05-19T09:31:49.215Z,98004.28
2023-05-19T09:36:50.707Z,97991.78
2023-05-19T09:41:53.561Z,97987.44
2023-05-19T09:46:54.825Z,97978.94
2023-05-19T09:51:56.609Z,97969.56
2023-05-19T09:56:58.812Z,97965.44
2023-05-19T10:02:00.135Z,97956.06
2023-05-19T10:07:01.437Z,97950.94
2023-05-19T10:12:02.842Z,97940.84
2023-05-19T10:17:04.129Z,97940.91
2023-05-19T10:22:05.512Z,97934.03
2023-05-19T10:27:08.744Z,97924.84
2023-05-19T10:32:09.967Z,97931.44
2023-05-19T10:37:12.026Z,97923.66
2023-05-19T10:42:13.376Z,97918.41
2023-05-19T10:47:14.767Z,97892.03
2023-05-19T10:52:16.144Z,97901.09
2023-05-19T10:57:17.427Z,97896.25
2023-05-19T11:02:18.683Z,97905.59
2023-05-19T11:07:24.659Z,97909.53
2023-05-19T11:12:26.034Z,97907.44
2023-05-19T11:17:27.430Z,97907.06
2023-05-19T11:22:28.668Z,97901.50
2023-05-19T11:27:33.252Z,97896.94
2023-05-19T11:32:34.813Z,97894.03
2023-05-19T11:37:36.744Z,97890.97
2023-05-19T11:42:38.085Z,97881.59
2023-05-19T11:47:59.682Z,97889.66
2023-05-19T11:53:01.163Z,97882.91
2023-05-19T11:58:04.636Z,97883.97
2023-05-19T12:03:07.217Z,97879.06
2023-05-19T12:08:08.785Z,97884.97
2023-05-19T12:13:10.496Z,97873.25
2023-05-19T12:18:12.191Z,97874.06
2023-05-19T12:23:13.470Z,97871.81
2023-05-19T12:33:16.554Z,97861.19
2023-05-19T12:38:17.908Z,97850.91
2023-05-19T12:43:19.148Z,97841.31
2023-05-19T12:48:22.552Z,97835.94
2023-05-19T12:53:23.847Z,97838.03
2023-05-19T12:58:25.194Z,97834.78
2023-05-19T13:03:26.528Z,97829.88
2023-05-19T13:08:27.923Z,97822.41
2023-05-19T13:13:29.186Z,97810.09
2023-05-19T13:18:32.409Z,97800.97
2023-05-19T13:23:34.750Z,97801.31
2023-05-19T13:28:36.026Z,97798.88
2023-05-19T13:33:37.248Z,97780.06
2023-05-19T13:38:38.558Z,97780.34
2023-05-19T13:43:39.827Z,97787.88
2023-05-19T13:48:41.340Z,97797.81
2023-05-19T13:53:43.082Z,97794.38
2023-05-19T13:58:44.326Z,97783.66
2023-05-19T14:03:45.680Z,97780.84
2023-05-19T14:08:46.911Z,97788.28
2023-05-19T14:13:49.090Z,97785.00
2023-05-19T14:18:51.283Z,97791.19
2023-05-19T14:23:52.531Z,97780.44
2023-05-19T14:28:53.776Z,97780.72
2023-05-19T14:33:54.982Z,97781.72
2023-05-19T14:38:56.733Z,97769.75
2023-05-19T14:43:57.979Z,97777.56
2023-05-19T14:48:59.303Z,97776.59
2023-05-19T14:54:02.107Z,97787.72
2023-05-19T14:59:04.470Z,97780.78
2023-05-19T15:04:05.824Z,97787.44
2023-05-19T15:09:07.119Z,97787.31
2023-05-19T15:14:08.412Z,97792.72
2023-05-19T15:19:09.688Z,97795.56
2023-05-19T15:24:11.344Z,97785.66
2023-05-19T15:29:12.635Z,97785.34
2023-05-19T15:34:13.891Z,97790.09
2023-05-19T15:39:15.347Z,97796.59
2023-05-19T15:44:16.588Z,97782.56
2023-05-19T15:49:21.049Z,97794.66
2023-05-19T15:54:22.374Z,97789.94
2023-05-19T15:59:23.707Z,97785.78
2023-05-19T16:04:24.945Z,97783.09
2023-05-19T16:09:26.256Z,97779.78
2023-05-19T16:14:30.960Z,97785.53
2023-05-19T16:19:32.225Z,97783.16
2023-05-19T16:29:34.685Z,97778.75
2023-05-19T16:34:35.910Z,97781.50
2023-05-19T16:39:37.295Z,97773.31
2023-05-19T16:44:38.594Z,97775.16
2023-05-19T16:49:40.864Z,97774.19
2023-05-19T16:54:42.167Z,97772.41
2023-05-19T16:59:44.535Z,97780.31
2023-05-19T17:04:45.802Z,97761.00
2023-05-19T17:09:48.038Z,97760.22
2023-05-19T17:14:50.367Z,97766.44
2023-05-19T17:19:51.956Z,97775.56
2023-05-19T17:24:53.155Z,97775.19
2023-05-19T17:29:54.427Z,97781.44
2023-05-19T17:34:55.657Z,97785.47
2023-05-19T17:39:56.881Z,97800.66
2023-05-19T17:44:58.242Z,97800.59
2023-05-19T17:49:59.493Z,97806.34
2023-05-19T17:55:00.858Z,97803.56
2023-05-19T18:00:03.536Z,97804.28
2023-05-19T18:05:04.829Z,97810.00
2023-05-19T18:10:06.131Z,97813.06
2023-05-19T18:15:07.408Z,97814.88
2023-05-19T18:20:10.530Z,97825.41
2023-05-19T18:25:11.825Z,97833.06
2023-05-19T18:30:13.082Z,97834.56
2023-05-19T18:35:14.584Z,97842.94
2023-05-19T18:40:17.774Z,97839.56
2023-05-19T18:45:19.038Z,97838.56
2023-05-19T18:50:20.591Z,97842.03
2023-05-19T18:55:21.937Z,97849.38
2023-05-19T19:00:23.766Z,97853.81
2023-05-19T19:05:25.092Z,97861.19
2023-05-19T19:10:27.160Z,97862.22
2023-05-19T19:15:29.303Z,97865.38
2023-05-19T19:20:30.643Z,97867.72
2023-05-19T19:25:31.917Z,97868.53
2023-05-19T19:30:33.429Z,97878.44
2023-05-19T19:35:34.995Z,97883.56
2023-05-19T19:40:36.405Z,97889.53
2023-05-19T19:45:39.553Z,97891.84
2023-05-19T19:50:40.922Z,97889.53
2023-05-19T19:55:42.976Z,97888.19
2023-05-19T20:00:44.436Z,97897.09
2023-05-19T20:05:45.766Z,97898.88
2023-05-19T20:10:48.039Z,97898.25
2023-05-19T20:15:49.458Z,97888.09
2023-05-19T20:20:50.817Z,97885.66
2023-05-19T20:26:09.907Z,97889.31
2023-05-19T20:31:11.956Z,97899.50
2023-05-19T20:36:13.189Z,97894.78
2023-05-19T20:41:14.418Z,97900.22
2023-05-19T20:46:15.703Z,97895.75
2023-05-19T20:51:16.975Z,97899.72
2023-05-19T20:56:18.231Z,97891.97
2023-05-19T21:01:19.854Z,97892.59
2023-05-19T21:06:21.125Z,97890.66
2023-05-19T21:11:22.386Z,97884.91
2023-05-19T21:16:23.652Z,97886.47
2023-05-19T21:21:24.966Z,97887.06
2023-05-19T21:26:29.330Z,97897.97
2023-05-19T21:31:30.661Z,97899.03
2023-05-19T21:36:32.043Z,97900.19
2023-05-19T21:41:33.457Z,97907.47
2023-05-19T21:46:34.805Z,97908.28
2023-05-19T21:51:36.724Z,97905.25
2023-05-19T21:56:38.186Z,97912.34
2023-05-19T22:01:39.681Z,97906.47
2023-05-19T22:06:41.002Z,97911.16
2023-05-19T22:11:42.286Z,97916.00
2023-05-19T22:16:43.801Z,97907.97
2023-05-19T22:21:45.288Z,97910.78
2023-05-19T22:26:47.282Z,97904.31
2023-05-19T22:31:48.546Z,97908.22
2023-05-19T22:36:49.929Z,97897.84
2023-05-19T22:41:51.183Z,97885.97
2023-05-19T22:46:52.422Z,97888.53
2023-05-19T22:51:53.663Z,97886.69
2023-05-19T22:56:54.957Z,97881.25
2023-05-19T23:01:56.223Z,97883.22
2023-05-19T23:06:57.514Z,97894.03
2023-05-19T23:11:58.832Z,97883.41
2023-05-19T23:17:00.253Z,97882.72
2023-05-19T23:22:01.596Z,97881.72
2023-05-19T23:27:02.885Z,97872.00
2023-05-19T23:32:04.139Z,97868.72
2023-05-19T23:37:05.389Z,97868.94
2023-05-19T23:42:06.712Z,97869.75
2023-05-19T23:47:08.071Z,97858.97
2023-05-19T23:52:09.461Z,97862.41
2023-05-19T23:57:10.739Z,97859.50
